sensor_id;sensor_type;location;lat;lon;timestamp;P1;durP1;ratioP1;P2;durP2;ratioP2
55455;SDS011;63021;52.836;6.376;2023-05-10T00:01:39;9.85;;;8.85;;
55455;SDS011;63021;52.836;6.376;2023-05-10T00:04:05;9.68;;;8.30;;
55455;SDS011;63021;52.836;6.376;2023-05-10T00:06:30;9.10;;;8.20;;
55455;SDS011;63021;52.836;6.376;2023-05-10T00:08:56;9.15;;;8.25;;
55455;SDS011;63021;52.836;6.376;2023-05-10T00:11:22;9.57;;;8.57;;
55455;SDS011;63021;52.836;6.376;2023-05-10T00:13:47;10.20;;;8.93;;
55455;SDS011;63021;52.836;6.376;2023-05-10T00:16:13;11.65;;;8.55;;
55455;SDS011;63021;52.836;6.376;2023-05-10T00:18:38;9.73;;;8.52;;
55455;SDS011;63021;52.836;6.376;2023-05-10T00:21:04;12.57;;;9.70;;
55455;SDS011;63021;52.836;6.376;2023-05-10T00:23:30;14.52;;;10.38;;
55455;SDS011;63021;52.836;6.376;2023-05-10T00:25:55;11.15;;;9.27;;
55455;SDS011;63021;52.836;6.376;2023-05-10T00:28:21;12.15;;;10.13;;
55455;SDS011;63021;52.836;6.376;2023-05-10T00:30:46;11.23;;;9.98;;
55455;SDS011;63021;52.836;6.376;2023-05-10T00:33:12;13.20;;;10.48;;
55455;SDS011;63021;52.836;6.376;2023-05-10T00:35:38;12.38;;;9.48;;
55455;SDS011;63021;52.836;6.376;2023-05-10T00:38:03;11.27;;;9.30;;
55455;SDS011;63021;52.836;6.376;2023-05-10T00:40:29;11.75;;;9.40;;
55455;SDS011;63021;52.836;6.376;2023-05-10T00:42:55;10.70;;;9.60;;
55455;SDS011;63021;52.836;6.376;2023-05-10T00:45:21;11.40;;;10.25;;
55455;SDS011;63021;52.836;6.376;2023-05-10T00:47:47;10.02;;;9.02;;
55455;SDS011;63021;52.836;6.376;2023-05-10T00:50:13;12.27;;;9.80;;
55455;SDS011;63021;52.836;6.376;2023-05-10T00:52:39;13.07;;;8.77;;
55455;SDS011;63021;52.836;6.376;2023-05-10T00:55:06;11.50;;;9.63;;
55455;SDS011;63021;52.836;6.376;2023-05-10T00:57:31;11.75;;;9.13;;
55455;SDS011;63021;52.836;6.376;2023-05-10T00:59:57;10.35;;;8.85;;
55455;SDS011;63021;52.836;6.376;2023-05-10T01:02:23;9.90;;;8.88;;
55455;SDS011;63021;52.836;6.376;2023-05-10T01:04:49;12.95;;;8.85;;
55455;SDS011;63021;52.836;6.376;2023-05-10T01:07:15;10.20;;;8.60;;
55455;SDS011;63021;52.836;6.376;2023-05-10T01:09:40;11.15;;;9.48;;
55455;SDS011;63021;52.836;6.376;2023-05-10T01:12:06;11.45;;;9.20;;
55455;SDS011;63021;52.836;6.376;2023-05-10T01:14:32;11.32;;;9.65;;
55455;SDS011;63021;52.836;6.376;2023-05-10T01:16:59;10.27;;;8.43;;
55455;SDS011;63021;52.836;6.376;2023-05-10T01:19:26;10.57;;;8.50;;
55455;SDS011;63021;52.836;6.376;2023-05-10T01:22:30;10.45;;;8.88;;
55455;SDS011;63021;52.836;6.376;2023-05-10T01:28:08;10.38;;;8.30;;
55455;SDS011;63021;52.836;6.376;2023-05-10T01:33:55;9.88;;;8.20;;
55455;SDS011;63021;52.836;6.376;2023-05-10T01:36:46;8.80;;;7.90;;
55455;SDS011;63021;52.836;6.376;2023-05-10T01:39:25;8.73;;;7.82;;
55455;SDS011;63021;52.836;6.376;2023-05-10T01:42:07;11.27;;;8.70;;
55455;SDS011;63021;52.836;6.376;2023-05-10T01:44:37;10.38;;;8.35;;
55455;SDS011;63021;52.836;6.376;2023-05-10T01:47:26;9.65;;;8.23;;
55455;SDS011;63021;52.836;6.376;2023-05-10T01:50:09;8.95;;;8.05;;
55455;SDS011;63021;52.836;6.376;2023-05-10T01:52:44;9.95;;;8.38;;
55455;SDS011;63021;52.836;6.376;2023-05-10T01:55:15;10.02;;;8.32;;
55455;SDS011;63021;52.836;6.376;2023-05-10T01:57:43;7.90;;;7.03;;
55455;SDS011;63021;52.836;6.376;2023-05-10T02:00:11;8.55;;;7.57;;
55455;SDS011;63021;52.836;6.376;2023-05-10T02:02:39;10.27;;;7.90;;
55455;SDS011;63021;52.836;6.376;2023-05-10T02:05:09;8.85;;;7.57;;
55455;SDS011;63021;52.836;6.376;2023-05-10T02:07:37;17.20;;;7.80;;
55455;SDS011;63021;52.836;6.376;2023-05-10T02:10:07;9.48;;;7.03;;
55455;SDS011;63021;52.836;6.376;2023-05-10T02:12:52;8.30;;;7.25;;
55455;SDS011;63021;52.836;6.376;2023-05-10T02:15:22;8.93;;;7.55;;
55455;SDS011;63021;52.836;6.376;2023-05-10T02:17:49;8.25;;;6.82;;
55455;SDS011;63021;52.836;6.376;2023-05-10T02:20:17;8.82;;;7.28;;
55455;SDS011;63021;52.836;6.376;2023-05-10T02:22:44;9.55;;;6.95;;
55455;SDS011;63021;52.836;6.376;2023-05-10T02:25:12;8.70;;;7.15;;
55455;SDS011;63021;52.836;6.376;2023-05-10T02:27:39;10.05;;;7.90;;
55455;SDS011;63021;52.836;6.376;2023-05-10T02:30:08;7.82;;;6.90;;
55455;SDS011;63021;52.836;6.376;2023-05-10T02:32:35;7.55;;;6.60;;
55455;SDS011;63021;52.836;6.376;2023-05-10T02:35:02;7.60;;;6.80;;
55455;SDS011;63021;52.836;6.376;2023-05-10T02:37:29;6.95;;;6.25;;
55455;SDS011;63021;52.836;6.376;2023-05-10T02:39:55;7.18;;;6.25;;
55455;SDS011;63021;52.836;6.376;2023-05-10T02:42:26;6.93;;;6.22;;
55455;SDS011;63021;52.836;6.376;2023-05-10T02:44:59;7.35;;;6.65;;
55455;SDS011;63021;52.836;6.376;2023-05-10T02:47:26;7.65;;;6.95;;
55455;SDS011;63021;52.836;6.376;2023-05-10T02:49:53;7.90;;;6.68;;
55455;SDS011;63021;52.836;6.376;2023-05-10T02:52:20;9.40;;;6.88;;
55455;SDS011;63021;52.836;6.376;2023-05-10T02:54:50;7.22;;;6.53;;
55455;SDS011;63021;52.836;6.376;2023-05-10T02:57:21;7.82;;;6.38;;
55455;SDS011;63021;52.836;6.376;2023-05-10T02:59:54;6.93;;;6.22;;
55455;SDS011;63021;52.836;6.376;2023-05-10T03:02:20;8.48;;;7.13;;
55455;SDS011;63021;52.836;6.376;2023-05-10T03:04:46;8.75;;;7.32;;
55455;SDS011;63021;52.836;6.376;2023-05-10T03:07:11;9.18;;;7.82;;
55455;SDS011;63021;52.836;6.376;2023-05-10T03:09:38;8.35;;;7.55;;
55455;SDS011;63021;52.836;6.376;2023-05-10T03:15:04;8.27;;;7.40;;
55455;SDS011;63021;52.836;6.376;2023-05-10T03:17:40;8.55;;;7.70;;
55455;SDS011;63021;52.836;6.376;2023-05-10T03:20:09;8.90;;;7.35;;
55455;SDS011;63021;52.836;6.376;2023-05-10T03:22:38;8.95;;;8.00;;
55455;SDS011;63021;52.836;6.376;2023-05-10T03:25:10;9.00;;;8.20;;
55455;SDS011;63021;52.836;6.376;2023-05-10T03:27:38;9.02;;;7.43;;
55455;SDS011;63021;52.836;6.376;2023-05-10T03:30:10;9.23;;;7.78;;
55455;SDS011;63021;52.836;6.376;2023-05-10T03:32:37;10.30;;;8.65;;
55455;SDS011;63021;52.836;6.376;2023-05-10T03:35:09;9.52;;;7.82;;
55455;SDS011;63021;52.836;6.376;2023-05-10T03:37:36;8.80;;;7.90;;
55455;SDS011;63021;52.836;6.376;2023-05-10T03:40:02;10.90;;;8.10;;
55455;SDS011;63021;52.836;6.376;2023-05-10T03:42:27;12.35;;;8.57;;
55455;SDS011;63021;52.836;6.376;2023-05-10T03:44:53;8.23;;;7.20;;
55455;SDS011;63021;52.836;6.376;2023-05-10T03:47:18;8.00;;;7.20;;
55455;SDS011;63021;52.836;6.376;2023-05-10T03:49:44;10.05;;;8.18;;
55455;SDS011;63021;52.836;6.376;2023-05-10T03:52:10;9.20;;;7.95;;
55455;SDS011;63021;52.836;6.376;2023-05-10T03:54:35;8.45;;;7.57;;
55455;SDS011;63021;52.836;6.376;2023-05-10T03:57:01;8.65;;;7.35;;
55455;SDS011;63021;52.836;6.376;2023-05-10T03:59:27;9.00;;;7.40;;
55455;SDS011;63021;52.836;6.376;2023-05-10T04:01:53;9.68;;;7.55;;
55455;SDS011;63021;52.836;6.376;2023-05-10T04:04:18;9.20;;;7.78;;
55455;SDS011;63021;52.836;6.376;2023-05-10T04:06:45;8.00;;;7.20;;
55455;SDS011;63021;52.836;6.376;2023-05-10T04:09:11;8.52;;;7.30;;
55455;SDS011;63021;52.836;6.376;2023-05-10T04:11:37;8.35;;;7.32;;
55455;SDS011;63021;52.836;6.376;2023-05-10T04:14:02;7.78;;;6.88;;
55455;SDS011;63021;52.836;6.376;2023-05-10T04:16:27;10.25;;;8.13;;
55455;SDS011;63021;52.836;6.376;2023-05-10T04:18:53;8.27;;;7.47;;
55455;SDS011;63021;52.836;6.376;2023-05-10T04:21:18;9.40;;;7.95;;
55455;SDS011;63021;52.836;6.376;2023-05-10T04:23:44;10.77;;;8.20;;
55455;SDS011;63021;52.836;6.376;2023-05-10T04:26:09;8.30;;;7.50;;
55455;SDS011;63021;52.836;6.376;2023-05-10T04:28:35;10.60;;;8.10;;
55455;SDS011;63021;52.836;6.376;2023-05-10T04:31:06;10.27;;;8.05;;
55455;SDS011;63021;52.836;6.376;2023-05-10T04:33:33;9.23;;;8.15;;
55455;SDS011;63021;52.836;6.376;2023-05-10T04:35:59;8.88;;;7.53;;
55455;SDS011;63021;52.836;6.376;2023-05-10T04:38:25;11.13;;;7.80;;
55455;SDS011;63021;52.836;6.376;2023-05-10T04:40:51;7.95;;;6.22;;
55455;SDS011;63021;52.836;6.376;2023-05-10T04:43:17;7.53;;;6.75;;
55455;SDS011;63021;52.836;6.376;2023-05-10T04:45:43;8.52;;;6.72;;
55455;SDS011;63021;52.836;6.376;2023-05-10T04:48:08;8.75;;;7.85;;
55455;SDS011;63021;52.836;6.376;2023-05-10T04:50:33;8.60;;;6.50;;
55455;SDS011;63021;52.836;6.376;2023-05-10T04:52:59;7.85;;;7.03;;
55455;SDS011;63021;52.836;6.376;2023-05-10T04:55:24;9.68;;;6.50;;
55455;SDS011;63021;52.836;6.376;2023-05-10T04:57:51;8.00;;;6.50;;
55455;SDS011;63021;52.836;6.376;2023-05-10T05:00:16;10.02;;;7.47;;
55455;SDS011;63021;52.836;6.376;2023-05-10T05:02:43;11.23;;;7.43;;
55455;SDS011;63021;52.836;6.376;2023-05-10T05:05:12;8.73;;;6.90;;
55455;SDS011;63021;52.836;6.376;2023-05-10T05:07:38;8.40;;;7.28;;
55455;SDS011;63021;52.836;6.376;2023-05-10T05:10:04;8.40;;;6.97;;
55455;SDS011;63021;52.836;6.376;2023-05-10T05:12:33;8.68;;;7.28;;
55455;SDS011;63021;52.836;6.376;2023-05-10T05:14:59;8.05;;;7.25;;
55455;SDS011;63021;52.836;6.376;2023-05-10T05:17:25;10.25;;;7.63;;
55455;SDS011;63021;52.836;6.376;2023-05-10T05:19:50;8.07;;;7.20;;
55455;SDS011;63021;52.836;6.376;2023-05-10T05:22:16;8.40;;;6.80;;
55455;SDS011;63021;52.836;6.376;2023-05-10T05:24:41;9.98;;;7.22;;
55455;SDS011;63021;52.836;6.376;2023-05-10T05:27:07;8.77;;;7.22;;
55455;SDS011;63021;52.836;6.376;2023-05-10T05:29:32;9.38;;;7.28;;
55455;SDS011;63021;52.836;6.376;2023-05-10T05:31:58;8.70;;;7.43;;
55455;SDS011;63021;52.836;6.376;2023-05-10T05:34:23;9.10;;;6.43;;
55455;SDS011;63021;52.836;6.376;2023-05-10T05:36:49;8.07;;;7.28;;
55455;SDS011;63021;52.836;6.376;2023-05-10T05:39:15;9.25;;;7.10;;
55455;SDS011;63021;52.836;6.376;2023-05-10T05:41:40;9.52;;;7.28;;
55455;SDS011;63021;52.836;6.376;2023-05-10T05:44:06;10.30;;;6.88;;
55455;SDS011;63021;52.836;6.376;2023-05-10T05:46:31;8.27;;;6.80;;
55455;SDS011;63021;52.836;6.376;2023-05-10T05:48:56;9.15;;;7.78;;
55455;SDS011;63021;52.836;6.376;2023-05-10T05:51:22;9.85;;;7.07;;
55455;SDS011;63021;52.836;6.376;2023-05-10T05:53:47;8.93;;;6.82;;
55455;SDS011;63021;52.836;6.376;2023-05-10T05:56:13;11.38;;;7.43;;
55455;SDS011;63021;52.836;6.376;2023-05-10T05:58:38;9.82;;;6.88;;
55455;SDS011;63021;52.836;6.376;2023-05-10T06:01:04;9.32;;;6.65;;
55455;SDS011;63021;52.836;6.376;2023-05-10T06:03:29;12.52;;;7.00;;
55455;SDS011;63021;52.836;6.376;2023-05-10T06:05:54;11.23;;;7.43;;
55455;SDS011;63021;52.836;6.376;2023-05-10T06:08:20;8.10;;;6.78;;
55455;SDS011;63021;52.836;6.376;2023-05-10T06:10:46;9.23;;;7.03;;
55455;SDS011;63021;52.836;6.376;2023-05-10T06:13:11;9.13;;;7.40;;
55455;SDS011;63021;52.836;6.376;2023-05-10T06:15:37;9.85;;;7.50;;
55455;SDS011;63021;52.836;6.376;2023-05-10T06:18:03;10.57;;;7.18;;
55455;SDS011;63021;52.836;6.376;2023-05-10T06:20:28;7.68;;;6.88;;
55455;SDS011;63021;52.836;6.376;2023-05-10T06:22:56;10.82;;;7.35;;
55455;SDS011;63021;52.836;6.376;2023-05-10T06:25:21;7.22;;;6.50;;
55455;SDS011;63021;52.836;6.376;2023-05-10T06:27:47;6.80;;;6.10;;
55455;SDS011;63021;52.836;6.376;2023-05-10T06:30:12;9.13;;;6.93;;
55455;SDS011;63021;52.836;6.376;2023-05-10T06:32:39;6.40;;;5.63;;
55455;SDS011;63021;52.836;6.376;2023-05-10T06:35:05;10.30;;;7.60;;
55455;SDS011;63021;52.836;6.376;2023-05-10T06:37:31;9.15;;;7.20;;
55455;SDS011;63021;52.836;6.376;2023-05-10T06:39:56;8.43;;;7.00;;
55455;SDS011;63021;52.836;6.376;2023-05-10T06:42:21;9.10;;;7.03;;
55455;SDS011;63021;52.836;6.376;2023-05-10T06:44:47;8.50;;;6.85;;
55455;SDS011;63021;52.836;6.376;2023-05-10T06:47:12;7.75;;;6.97;;
55455;SDS011;63021;52.836;6.376;2023-05-10T06:49:37;10.05;;;7.70;;
55455;SDS011;63021;52.836;6.376;2023-05-10T06:52:03;11.05;;;6.47;;
55455;SDS011;63021;52.836;6.376;2023-05-10T06:54:29;9.00;;;7.40;;
55455;SDS011;63021;52.836;6.376;2023-05-10T06:56:54;8.63;;;7.45;;
55455;SDS011;63021;52.836;6.376;2023-05-10T06:59:20;8.55;;;6.15;;
55455;SDS011;63021;52.836;6.376;2023-05-10T07:01:46;9.73;;;6.95;;
55455;SDS011;63021;52.836;6.376;2023-05-10T07:04:11;8.10;;;6.32;;
55455;SDS011;63021;52.836;6.376;2023-05-10T07:06:37;9.15;;;6.28;;
55455;SDS011;63021;52.836;6.376;2023-05-10T07:09:03;8.48;;;7.10;;
55455;SDS011;63021;52.836;6.376;2023-05-10T07:11:28;9.50;;;6.78;;
55455;SDS011;63021;52.836;6.376;2023-05-10T07:13:54;7.55;;;5.88;;
55455;SDS011;63021;52.836;6.376;2023-05-10T07:16:19;6.72;;;5.95;;
55455;SDS011;63021;52.836;6.376;2023-05-10T07:18:46;7.57;;;5.57;;
55455;SDS011;63021;52.836;6.376;2023-05-10T07:21:11;7.60;;;5.97;;
55455;SDS011;63021;52.836;6.376;2023-05-10T07:23:37;8.48;;;5.82;;
55455;SDS011;63021;52.836;6.376;2023-05-10T07:26:02;6.93;;;5.75;;
55455;SDS011;63021;52.836;6.376;2023-05-10T07:28:28;7.72;;;5.07;;
55455;SDS011;63021;52.836;6.376;2023-05-10T07:30:53;9.38;;;4.68;;
55455;SDS011;63021;52.836;6.376;2023-05-10T07:33:19;7.82;;;5.25;;
55455;SDS011;63021;52.836;6.376;2023-05-10T07:35:44;5.72;;;4.20;;
55455;SDS011;63021;52.836;6.376;2023-05-10T07:38:09;7.93;;;4.45;;
55455;SDS011;63021;52.836;6.376;2023-05-10T07:40:38;7.97;;;5.07;;
55455;SDS011;63021;52.836;6.376;2023-05-10T07:43:04;6.10;;;4.63;;
55455;SDS011;63021;52.836;6.376;2023-05-10T07:45:29;7.50;;;5.15;;
55455;SDS011;63021;52.836;6.376;2023-05-10T07:47:55;7.43;;;4.80;;
55455;SDS011;63021;52.836;6.376;2023-05-10T07:50:20;7.78;;;5.03;;
55455;SDS011;63021;52.836;6.376;2023-05-10T07:52:46;9.73;;;5.43;;
55455;SDS011;63021;52.836;6.376;2023-05-10T07:55:13;6.30;;;5.40;;
55455;SDS011;63021;52.836;6.376;2023-05-10T07:57:38;8.25;;;5.57;;
55455;SDS011;63021;52.836;6.376;2023-05-10T08:00:04;7.85;;;5.45;;
55455;SDS011;63021;52.836;6.376;2023-05-10T08:02:30;6.20;;;5.13;;
55455;SDS011;63021;52.836;6.376;2023-05-10T08:04:56;6.53;;;5.75;;
55455;SDS011;63021;52.836;6.376;2023-05-10T08:07:22;9.43;;;5.55;;
55455;SDS011;63021;52.836;6.376;2023-05-10T08:09:49;8.23;;;5.43;;
55455;SDS011;63021;52.836;6.376;2023-05-10T08:12:14;7.60;;;5.80;;
55455;SDS011;63021;52.836;6.376;2023-05-10T08:14:39;8.82;;;6.35;;
55455;SDS011;63021;52.836;6.376;2023-05-10T08:17:05;7.47;;;6.03;;
55455;SDS011;63021;52.836;6.376;2023-05-10T08:19:31;7.43;;;5.70;;
55455;SDS011;63021;52.836;6.376;2023-05-10T08:21:57;8.13;;;5.57;;
55455;SDS011;63021;52.836;6.376;2023-05-10T08:24:22;8.00;;;5.65;;
55455;SDS011;63021;52.836;6.376;2023-05-10T08:26:48;8.30;;;5.25;;
55455;SDS011;63021;52.836;6.376;2023-05-10T08:29:13;7.65;;;5.10;;
55455;SDS011;63021;52.836;6.376;2023-05-10T08:31:39;10.65;;;6.88;;
55455;SDS011;63021;52.836;6.376;2023-05-10T08:34:05;9.50;;;6.90;;
55455;SDS011;63021;52.836;6.376;2023-05-10T08:36:30;8.90;;;7.15;;
55455;SDS011;63021;52.836;6.376;2023-05-10T08:38:57;7.72;;;6.90;;
55455;SDS011;63021;52.836;6.376;2023-05-10T08:41:24;11.23;;;7.25;;
55455;SDS011;63021;52.836;6.376;2023-05-10T08:43:50;14.23;;;8.98;;
55455;SDS011;63021;52.836;6.376;2023-05-10T08:46:17;13.15;;;9.98;;
55455;SDS011;63021;52.836;6.376;2023-05-10T08:48:47;12.13;;;9.38;;
55455;SDS011;63021;52.836;6.376;2023-05-10T08:51:15;15.52;;;10.77;;
55455;SDS011;63021;52.836;6.376;2023-05-10T08:53:47;14.02;;;10.23;;
55455;SDS011;63021;52.836;6.376;2023-05-10T08:56:13;15.30;;;10.82;;
55455;SDS011;63021;52.836;6.376;2023-05-10T08:58:40;17.67;;;11.55;;
55455;SDS011;63021;52.836;6.376;2023-05-10T09:01:06;14.75;;;10.73;;
55455;SDS011;63021;52.836;6.376;2023-05-10T09:03:32;14.60;;;10.13;;
55455;SDS011;63021;52.836;6.376;2023-05-10T09:05:58;15.05;;;10.82;;
55455;SDS011;63021;52.836;6.376;2023-05-10T09:08:24;18.08;;;11.30;;
55455;SDS011;63021;52.836;6.376;2023-05-10T09:10:53;16.40;;;10.75;;
55455;SDS011;63021;52.836;6.376;2023-05-10T09:13:19;12.70;;;10.13;;
55455;SDS011;63021;52.836;6.376;2023-05-10T09:15:46;17.55;;;10.98;;
55455;SDS011;63021;52.836;6.376;2023-05-10T09:18:12;17.50;;;10.93;;
55455;SDS011;63021;52.836;6.376;2023-05-10T09:20:37;11.52;;;9.95;;
55455;SDS011;63021;52.836;6.376;2023-05-10T09:23:03;16.05;;;11.25;;
55455;SDS011;63021;52.836;6.376;2023-05-10T09:25:28;13.45;;;10.35;;
55455;SDS011;63021;52.836;6.376;2023-05-10T09:27:54;13.02;;;10.15;;
55455;SDS011;63021;52.836;6.376;2023-05-10T09:30:27;15.95;;;10.00;;
55455;SDS011;63021;52.836;6.376;2023-05-10T09:32:54;12.05;;;9.55;;
55455;SDS011;63021;52.836;6.376;2023-05-10T09:35:22;13.38;;;9.60;;
55455;SDS011;63021;52.836;6.376;2023-05-10T09:37:50;14.23;;;10.38;;
55455;SDS011;63021;52.836;6.376;2023-05-10T09:40:17;14.55;;;10.10;;
55455;SDS011;63021;52.836;6.376;2023-05-10T09:43:06;13.25;;;9.57;;
55455;SDS011;63021;52.836;6.376;2023-05-10T09:45:32;13.32;;;9.43;;
55455;SDS011;63021;52.836;6.376;2023-05-10T09:48:00;9.93;;;8.48;;
55455;SDS011;63021;52.836;6.376;2023-05-10T09:50:27;10.43;;;7.95;;
55455;SDS011;63021;52.836;6.376;2023-05-10T09:55:25;8.82;;;6.80;;
55455;SDS011;63021;52.836;6.376;2023-05-10T09:58:07;7.00;;;6.30;;
55455;SDS011;63021;52.836;6.376;2023-05-10T10:00:45;7.30;;;6.05;;
55455;SDS011;63021;52.836;6.376;2023-05-10T10:03:13;6.45;;;5.75;;
55455;SDS011;63021;52.836;6.376;2023-05-10T10:05:42;7.30;;;6.50;;
55455;SDS011;63021;52.836;6.376;2023-05-10T10:08:09;8.95;;;6.35;;
55455;SDS011;63021;52.836;6.376;2023-05-10T10:10:35;6.35;;;4.82;;
55455;SDS011;63021;52.836;6.376;2023-05-10T10:13:01;6.93;;;5.10;;
55455;SDS011;63021;52.836;6.376;2023-05-10T10:15:26;7.00;;;5.68;;
55455;SDS011;63021;52.836;6.376;2023-05-10T10:17:52;5.38;;;4.88;;
55455;SDS011;63021;52.836;6.376;2023-05-10T10:20:20;5.57;;;4.72;;
55455;SDS011;63021;52.836;6.376;2023-05-10T10:22:47;6.63;;;5.22;;
55455;SDS011;63021;52.836;6.376;2023-05-10T10:25:14;9.52;;;5.50;;
55455;SDS011;63021;52.836;6.376;2023-05-10T10:35:31;7.13;;;6.05;;
55455;SDS011;63021;52.836;6.376;2023-05-10T10:37:58;8.65;;;5.88;;
55455;SDS011;63021;52.836;6.376;2023-05-10T10:40:27;7.28;;;5.70;;
55455;SDS011;63021;52.836;6.376;2023-05-10T10:42:54;8.13;;;6.70;;
55455;SDS011;63021;52.836;6.376;2023-05-10T10:45:20;8.70;;;6.20;;
55455;SDS011;63021;52.836;6.376;2023-05-10T10:47:47;7.68;;;6.88;;
55455;SDS011;63021;52.836;6.376;2023-05-10T10:50:13;7.82;;;7.03;;
55455;SDS011;63021;52.836;6.376;2023-05-10T10:52:42;8.25;;;6.75;;
55455;SDS011;63021;52.836;6.376;2023-05-10T10:57:48;8.70;;;6.65;;
55455;SDS011;63021;52.836;6.376;2023-05-10T11:05:42;10.68;;;7.95;;
55455;SDS011;63021;52.836;6.376;2023-05-10T11:10:37;10.77;;;8.32;;
55455;SDS011;63021;52.836;6.376;2023-05-10T11:13:03;9.35;;;7.68;;
55455;SDS011;63021;52.836;6.376;2023-05-10T11:15:48;8.85;;;7.18;;
55455;SDS011;63021;52.836;6.376;2023-05-10T11:18:19;11.15;;;7.40;;
55455;SDS011;63021;52.836;6.376;2023-05-10T11:21:08;8.85;;;7.13;;
55455;SDS011;63021;52.836;6.376;2023-05-10T11:26:21;9.63;;;7.45;;
55455;SDS011;63021;52.836;6.376;2023-05-10T11:28:51;10.10;;;7.03;;
55455;SDS011;63021;52.836;6.376;2023-05-10T11:31:24;9.77;;;6.85;;
55455;SDS011;63021;52.836;6.376;2023-05-10T11:33:52;9.93;;;7.38;;
55455;SDS011;63021;52.836;6.376;2023-05-10T11:38:52;7.40;;;6.28;;
55455;SDS011;63021;52.836;6.376;2023-05-10T11:41:19;8.10;;;6.55;;
55455;SDS011;63021;52.836;6.376;2023-05-10T11:43:47;8.10;;;6.47;;
55455;SDS011;63021;52.836;6.376;2023-05-10T11:46:14;9.25;;;6.85;;
55455;SDS011;63021;52.836;6.376;2023-05-10T11:48:41;10.07;;;7.90;;
55455;SDS011;63021;52.836;6.376;2023-05-10T11:51:07;11.60;;;9.45;;
55455;SDS011;63021;52.836;6.376;2023-05-10T11:53:34;13.85;;;8.95;;
55455;SDS011;63021;52.836;6.376;2023-05-10T11:56:07;12.15;;;9.25;;
55455;SDS011;63021;52.836;6.376;2023-05-10T11:58:34;13.00;;;10.00;;
55455;SDS011;63021;52.836;6.376;2023-05-10T12:01:01;11.27;;;8.10;;
55455;SDS011;63021;52.836;6.376;2023-05-10T12:03:27;10.82;;;8.20;;
55455;SDS011;63021;52.836;6.376;2023-05-10T12:05:54;12.65;;;9.30;;
55455;SDS011;63021;52.836;6.376;2023-05-10T12:08:21;14.38;;;9.88;;
55455;SDS011;63021;52.836;6.376;2023-05-10T12:10:48;13.15;;;9.80;;
55455;SDS011;63021;52.836;6.376;2023-05-10T12:13:14;15.05;;;9.93;;
55455;SDS011;63021;52.836;6.376;2023-05-10T12:15:40;14.55;;;10.52;;
55455;SDS011;63021;52.836;6.376;2023-05-10T12:18:10;14.27;;;11.35;;
55455;SDS011;63021;52.836;6.376;2023-05-10T12:20:36;14.52;;;11.18;;
55455;SDS011;63021;52.836;6.376;2023-05-10T12:23:03;13.80;;;10.90;;
55455;SDS011;63021;52.836;6.376;2023-05-10T12:25:33;16.55;;;10.18;;
55455;SDS011;63021;52.836;6.376;2023-05-10T12:27:59;14.02;;;10.68;;
55455;SDS011;63021;52.836;6.376;2023-05-10T12:30:28;14.73;;;10.68;;
55455;SDS011;63021;52.836;6.376;2023-05-10T12:33:11;13.00;;;9.85;;
55455;SDS011;63021;52.836;6.376;2023-05-10T12:40:51;15.20;;;10.52;;
55455;SDS011;63021;52.836;6.376;2023-05-10T12:43:16;13.35;;;9.55;;
55455;SDS011;63021;52.836;6.376;2023-05-10T12:45:42;14.00;;;9.70;;
55455;SDS011;63021;52.836;6.376;2023-05-10T12:48:07;13.05;;;10.63;;
55455;SDS011;63021;52.836;6.376;2023-05-10T12:50:33;13.70;;;10.38;;
55455;SDS011;63021;52.836;6.376;2023-05-10T12:52:58;15.73;;;10.70;;
55455;SDS011;63021;52.836;6.376;2023-05-10T12:55:24;14.10;;;9.63;;
55455;SDS011;63021;52.836;6.376;2023-05-10T12:57:49;14.80;;;10.52;;
55455;SDS011;63021;52.836;6.376;2023-05-10T13:00:15;14.20;;;9.52;;
55455;SDS011;63021;52.836;6.376;2023-05-10T13:02:40;13.85;;;9.77;;
55455;SDS011;63021;52.836;6.376;2023-05-10T13:05:06;15.57;;;10.10;;
55455;SDS011;63021;52.836;6.376;2023-05-10T13:07:32;13.05;;;9.95;;
55455;SDS011;63021;52.836;6.376;2023-05-10T13:09:57;12.32;;;9.65;;
55455;SDS011;63021;52.836;6.376;2023-05-10T13:12:22;14.73;;;10.48;;
55455;SDS011;63021;52.836;6.376;2023-05-10T13:14:48;16.45;;;10.55;;
55455;SDS011;63021;52.836;6.376;2023-05-10T13:17:13;13.93;;;9.68;;
55455;SDS011;63021;52.836;6.376;2023-05-10T13:19:39;16.40;;;10.60;;
55455;SDS011;63021;52.836;6.376;2023-05-10T13:22:04;13.40;;;9.98;;
55455;SDS011;63021;52.836;6.376;2023-05-10T13:24:29;13.00;;;10.60;;
55455;SDS011;63021;52.836;6.376;2023-05-10T13:26:55;13.52;;;10.23;;
55455;SDS011;63021;52.836;6.376;2023-05-10T13:29:20;12.98;;;10.48;;
55455;SDS011;63021;52.836;6.376;2023-05-10T13:31:47;12.63;;;9.38;;
55455;SDS011;63021;52.836;6.376;2023-05-10T13:34:12;13.55;;;9.20;;
55455;SDS011;63021;52.836;6.376;2023-05-10T13:36:38;11.52;;;8.95;;
55455;SDS011;63021;52.836;6.376;2023-05-10T13:39:03;12.85;;;9.45;;
55455;SDS011;63021;52.836;6.376;2023-05-10T13:41:30;13.88;;;10.07;;
55455;SDS011;63021;52.836;6.376;2023-05-10T13:43:55;11.52;;;8.90;;
55455;SDS011;63021;52.836;6.376;2023-05-10T13:46:21;13.68;;;10.02;;
55455;SDS011;63021;52.836;6.376;2023-05-10T13:48:46;12.23;;;9.07;;
55455;SDS011;63021;52.836;6.376;2023-05-10T13:51:11;9.75;;;7.50;;
55455;SDS011;63021;52.836;6.376;2023-05-10T13:53:37;11.98;;;7.82;;
55455;SDS011;63021;52.836;6.376;2023-05-10T13:56:03;8.23;;;7.07;;
55455;SDS011;63021;52.836;6.376;2023-05-10T13:58:28;8.45;;;7.35;;
55455;SDS011;63021;52.836;6.376;2023-05-10T14:00:54;9.48;;;7.63;;
55455;SDS011;63021;52.836;6.376;2023-05-10T14:03:19;11.43;;;8.68;;
55455;SDS011;63021;52.836;6.376;2023-05-10T14:05:44;10.25;;;8.20;;
55455;SDS011;63021;52.836;6.376;2023-05-10T14:08:10;12.07;;;7.85;;
55455;SDS011;63021;52.836;6.376;2023-05-10T14:10:38;10.30;;;7.78;;
55455;SDS011;63021;52.836;6.376;2023-05-10T14:13:04;9.68;;;7.82;;
55455;SDS011;63021;52.836;6.376;2023-05-10T14:15:29;8.98;;;7.68;;
55455;SDS011;63021;52.836;6.376;2023-05-10T14:17:55;14.30;;;9.10;;
55455;SDS011;63021;52.836;6.376;2023-05-10T14:20:21;13.77;;;10.23;;
55455;SDS011;63021;52.836;6.376;2023-05-10T14:22:46;11.80;;;9.00;;
55455;SDS011;63021;52.836;6.376;2023-05-10T14:25:11;12.75;;;9.18;;
55455;SDS011;63021;52.836;6.376;2023-05-10T14:27:38;16.45;;;9.68;;
55455;SDS011;63021;52.836;6.376;2023-05-10T14:30:03;11.98;;;8.55;;
55455;SDS011;63021;52.836;6.376;2023-05-10T14:32:29;12.82;;;9.57;;
55455;SDS011;63021;52.836;6.376;2023-05-10T14:34:56;13.55;;;9.40;;
55455;SDS011;63021;52.836;6.376;2023-05-10T14:37:22;13.48;;;10.00;;
55455;SDS011;63021;52.836;6.376;2023-05-10T14:39:47;9.88;;;8.30;;
55455;SDS011;63021;52.836;6.376;2023-05-10T14:42:13;11.73;;;8.93;;
55455;SDS011;63021;52.836;6.376;2023-05-10T14:44:38;11.68;;;8.65;;
55455;SDS011;63021;52.836;6.376;2023-05-10T14:47:03;19.58;;;9.55;;
55455;SDS011;63021;52.836;6.376;2023-05-10T14:49:29;9.80;;;8.60;;
55455;SDS011;63021;52.836;6.376;2023-05-10T14:51:54;10.68;;;8.05;;
55455;SDS011;63021;52.836;6.376;2023-05-10T14:54:19;10.45;;;7.75;;
55455;SDS011;63021;52.836;6.376;2023-05-10T14:56:45;10.30;;;7.80;;
55455;SDS011;63021;52.836;6.376;2023-05-10T14:59:11;9.13;;;7.85;;
55455;SDS011;63021;52.836;6.376;2023-05-10T15:01:36;8.60;;;7.30;;
55455;SDS011;63021;52.836;6.376;2023-05-10T15:04:05;10.77;;;7.65;;
55455;SDS011;63021;52.836;6.376;2023-05-10T15:06:31;9.05;;;7.20;;
55455;SDS011;63021;52.836;6.376;2023-05-10T15:08:57;9.77;;;5.63;;
55455;SDS011;63021;52.836;6.376;2023-05-10T15:11:22;9.20;;;5.50;;
55455;SDS011;63021;52.836;6.376;2023-05-10T15:13:48;7.43;;;5.72;;
55455;SDS011;63021;52.836;6.376;2023-05-10T15:16:13;10.35;;;6.53;;
55455;SDS011;63021;52.836;6.376;2023-05-10T15:18:38;11.52;;;7.30;;
55455;SDS011;63021;52.836;6.376;2023-05-10T15:21:04;8.93;;;7.30;;